createdAt,value
2018-08-17T00:01:02.165Z,23.37
2018-08-17T00:03:32.176Z,23.36
2018-08-17T00:06:01.889Z,23.34
2018-08-17T00:08:31.627Z,23.32
2018-08-17T00:11:01.697Z,23.30
2018-08-17T00:13:31.329Z,23.30
2018-08-17T00:16:00.305Z,23.29
2018-08-17T00:18:30.017Z,23.26
2018-08-17T00:20:59.170Z,23.26
2018-08-17T00:23:28.815Z,23.23
2018-08-17T00:25:58.576Z,23.18
2018-08-17T00:28:29.260Z,23.21
2018-08-17T00:30:58.093Z,23.19
2018-08-17T00:33:29.760Z,23.16
2018-08-17T00:35:59.524Z,23.15
2018-08-17T00:38:30.185Z,23.13
2018-08-17T00:40:59.961Z,23.11
2018-08-17T00:43:29.407Z,23.09
2018-08-17T00:45:58.577Z,23.08
2018-08-17T00:48:28.128Z,23.04
2018-08-17T00:50:57.955Z,23.05
2018-08-17T00:53:27.317Z,23.03
2018-08-17T00:55:56.287Z,23.01
2018-08-17T00:58:26.803Z,23.00
2018-08-17T01:00:55.926Z,22.99
2018-08-17T01:03:25.694Z,22.97
2018-08-17T01:05:54.873Z,22.96
2018-08-17T01:08:24.551Z,22.95
2018-08-17T01:10:55.558Z,22.90
2018-08-17T01:13:25.334Z,22.86
2018-08-17T01:15:54.348Z,22.82
2018-08-17T01:18:23.321Z,22.81
2018-08-17T01:20:52.138Z,22.79
2018-08-17T01:23:21.676Z,22.78
2018-08-17T01:25:50.827Z,22.77
2018-08-17T01:28:20.781Z,22.76
2018-08-17T01:30:49.824Z,22.75
2018-08-17T01:33:20.669Z,22.73
2018-08-17T01:35:51.367Z,22.70
2018-08-17T01:38:22.057Z,22.68
2018-08-17T01:40:52.745Z,22.68
2018-08-17T01:43:22.096Z,22.66
2018-08-17T01:45:52.878Z,22.64
2018-08-17T01:48:22.840Z,22.64
2018-08-17T01:50:53.373Z,22.59
2018-08-17T01:53:22.418Z,22.57
2018-08-17T01:55:53.710Z,22.55
2018-08-17T01:58:24.213Z,22.54
2018-08-17T02:00:54.266Z,22.53
2018-08-17T02:03:23.176Z,22.50
2018-08-17T02:05:53.118Z,22.48
2018-08-17T02:08:23.245Z,22.45
2018-08-17T02:10:53.580Z,22.40
2018-08-17T02:13:22.679Z,22.39
2018-08-17T02:15:53.547Z,22.38
2018-08-17T02:18:25.309Z,22.36
2018-08-17T02:20:56.588Z,22.30
2018-08-17T02:23:25.293Z,22.28
2018-08-17T02:25:54.535Z,22.22
2018-08-17T02:28:24.893Z,22.23
2018-08-17T02:30:56.059Z,22.21
2018-08-17T02:33:26.605Z,22.19
2018-08-17T02:35:56.622Z,22.19
2018-08-17T02:38:27.075Z,22.14
2018-08-17T02:40:57.228Z,22.17
2018-08-17T02:43:26.330Z,22.13
2018-08-17T02:45:56.587Z,22.08
2018-08-17T02:48:25.292Z,22.04
2018-08-17T02:50:54.394Z,22.00
2018-08-17T02:53:24.084Z,21.99
2018-08-17T02:55:52.792Z,21.96
2018-08-17T02:58:22.158Z,21.92
2018-08-17T03:00:51.493Z,21.89
2018-08-17T03:03:22.250Z,21.88
2018-08-17T03:05:52.233Z,21.90
2018-08-17T03:08:23.893Z,21.86
2018-08-17T03:10:52.600Z,21.81
2018-08-17T03:13:22.896Z,21.82
2018-08-17T03:15:52.865Z,21.76
2018-08-17T03:18:22.880Z,21.74
2018-08-17T03:20:55.122Z,21.73
2018-08-17T03:23:26.039Z,21.71
2018-08-17T03:25:56.596Z,21.68
2018-08-17T03:28:26.885Z,21.68
2018-08-17T03:30:56.811Z,21.66
2018-08-17T03:33:27.981Z,21.64
2018-08-17T03:35:58.455Z,21.63
2018-08-17T03:38:29.281Z,21.61
2018-08-17T03:40:58.747Z,21.56
2018-08-17T03:43:27.882Z,21.56
2018-08-17T03:45:56.602Z,21.51
2018-08-17T03:48:25.838Z,21.50
2018-08-17T03:50:55.549Z,21.47
2018-08-17T03:53:24.544Z,21.44
2018-08-17T03:55:56.490Z,21.45
2018-08-17T03:58:26.990Z,21.41
2018-08-17T04:01:03.196Z,21.42
2018-08-17T04:03:32.896Z,21.40
2018-08-17T04:06:02.199Z,21.43
2018-08-17T04:08:33.144Z,21.39
2018-08-17T04:11:03.019Z,21.40
2018-08-17T04:13:33.497Z,21.41
2018-08-17T04:16:03.641Z,21.37
2018-08-17T04:18:32.547Z,21.35
2018-08-17T04:21:01.573Z,21.35
2018-08-17T04:23:30.512Z,21.35
2018-08-17T04:25:59.372Z,21.31
2018-08-17T04:28:28.319Z,21.30
2018-08-17T04:30:58.648Z,21.31
2018-08-17T04:33:28.704Z,21.34
2018-08-17T04:35:57.717Z,21.34
2018-08-17T04:38:27.338Z,21.34
2018-08-17T04:40:57.336Z,21.35
2018-08-17T04:43:26.856Z,21.33
2018-08-17T04:45:56.138Z,21.31
2018-08-17T04:48:25.338Z,21.31
2018-08-17T04:50:54.905Z,21.30
2018-08-17T04:53:23.963Z,21.30
2018-08-17T04:55:52.814Z,21.31
2018-08-17T04:58:22.805Z,21.29
2018-08-17T05:00:53.021Z,21.27
2018-08-17T05:03:22.855Z,21.28
2018-08-17T05:05:53.136Z,21.30
2018-08-17T05:08:23.242Z,21.30
2018-08-17T05:10:52.455Z,21.33
2018-08-17T05:13:21.385Z,21.32
2018-08-17T05:15:51.569Z,21.34
2018-08-17T05:18:22.584Z,21.36
2018-08-17T05:20:51.585Z,21.38
2018-08-17T05:23:21.196Z,21.41
2018-08-17T05:25:50.051Z,21.45
2018-08-17T05:28:20.429Z,21.50
2018-08-17T05:30:51.167Z,21.51
2018-08-17T05:33:21.685Z,21.55
2018-08-17T05:35:52.135Z,21.59
2018-08-17T05:38:22.546Z,21.62
2018-08-17T05:40:53.521Z,21.65
2018-08-17T05:43:23.001Z,21.67
2018-08-17T05:45:53.351Z,21.72
2018-08-17T05:48:22.621Z,21.74
2018-08-17T05:50:52.930Z,21.76
2018-08-17T05:53:21.622Z,21.80
2018-08-17T05:55:52.075Z,21.82
2018-08-17T05:58:20.809Z,21.86
2018-08-17T06:00:50.664Z,21.87
2018-08-17T06:03:20.461Z,21.84
2018-08-17T06:05:51.737Z,21.88
2018-08-17T06:08:22.121Z,21.89
2018-08-17T06:10:52.195Z,21.98
2018-08-17T06:13:21.717Z,22.09
2018-08-17T06:15:52.432Z,22.23
2018-08-17T06:18:21.841Z,22.38
2018-08-17T06:20:51.570Z,22.53
2018-08-17T06:23:22.565Z,22.70
2018-08-17T06:25:52.268Z,22.88
2018-08-17T06:28:22.103Z,23.17
2018-08-17T06:30:51.512Z,23.44
2018-08-17T06:33:20.436Z,23.67
2018-08-17T06:35:50.211Z,23.84
2018-08-17T06:38:20.506Z,24.16
2018-08-17T06:40:50.659Z,24.45
2018-08-17T06:43:19.417Z,24.64
2018-08-17T06:45:49.387Z,24.75
2018-08-17T06:48:19.284Z,24.88
2018-08-17T06:50:48.953Z,24.92
2018-08-17T06:53:19.031Z,25.07
2018-08-17T06:55:47.914Z,24.96
2018-08-17T06:58:17.525Z,25.00
2018-08-17T07:00:48.362Z,24.89
2018-08-17T07:03:17.993Z,24.82
2018-08-17T07:05:47.169Z,24.82
2018-08-17T07:08:16.733Z,24.88
2018-08-17T07:10:46.699Z,24.83
2018-08-17T07:13:16.483Z,24.88
2018-08-17T07:15:46.665Z,24.94
2018-08-17T07:18:16.538Z,24.85
2018-08-17T07:20:45.820Z,24.86
2018-08-17T07:23:14.885Z,24.91
2018-08-17T07:25:45.564Z,24.90
2018-08-17T07:28:15.179Z,25.00
2018-08-17T07:30:45.320Z,25.01
2018-08-17T07:33:15.339Z,25.23
2018-08-17T07:35:46.240Z,25.04
2018-08-17T07:38:16.692Z,25.14
2018-08-17T07:40:46.153Z,25.20
2018-08-17T07:43:15.788Z,25.18
2018-08-17T07:45:45.718Z,25.22
2018-08-17T07:48:16.206Z,25.25
2018-08-17T07:50:45.639Z,25.30
2018-08-17T07:53:15.691Z,25.42
2018-08-17T07:55:46.400Z,25.26
2018-08-17T07:58:17.249Z,25.32
2018-08-17T08:00:47.508Z,25.41
2018-08-17T08:03:18.298Z,25.48
2018-08-17T08:05:48.479Z,25.58
2018-08-17T08:08:20.270Z,25.80
2018-08-17T08:10:49.987Z,25.83
2018-08-17T08:13:19.209Z,25.99
2018-08-17T08:15:48.127Z,26.19
2018-08-17T08:18:17.179Z,26.39
2018-08-17T08:20:46.476Z,26.63
2018-08-17T08:23:30.738Z,26.81
2018-08-17T08:26:01.252Z,27.15
2018-08-17T08:28:30.300Z,27.45
2018-08-17T08:30:59.303Z,27.65
2018-08-17T08:33:29.046Z,27.85
2018-08-17T08:35:57.960Z,27.97
2018-08-17T08:38:27.953Z,27.98
2018-08-17T08:40:56.921Z,28.02
2018-08-17T08:43:27.229Z,28.02
2018-08-17T08:45:56.725Z,28.25
2018-08-17T08:48:26.562Z,28.31
2018-08-17T08:50:57.092Z,28.45
2018-08-17T08:53:26.006Z,28.68
2018-08-17T08:55:55.580Z,28.86
2018-08-17T08:58:26.814Z,29.02
2018-08-17T09:00:55.802Z,29.29
2018-08-17T09:03:24.621Z,29.46
2018-08-17T09:05:53.435Z,29.61
2018-08-17T09:08:22.325Z,29.79
2018-08-17T09:10:51.194Z,30.10
2018-08-17T09:13:20.873Z,30.53
2018-08-17T09:15:51.453Z,30.96
2018-08-17T09:18:20.169Z,31.39
2018-08-17T09:20:49.414Z,31.76
2018-08-17T09:23:19.899Z,31.87
2018-08-17T09:25:50.572Z,31.83
2018-08-17T09:28:20.309Z,31.94
2018-08-17T09:30:49.689Z,32.00
2018-08-17T09:33:18.939Z,32.17
2018-08-17T09:35:48.140Z,32.35
2018-08-17T09:38:16.850Z,32.32
2018-08-17T09:40:45.560Z,32.00
2018-08-17T09:43:14.233Z,32.16
2018-08-17T09:45:43.046Z,32.25
2018-08-17T09:48:12.291Z,32.21
2018-08-17T09:50:41.135Z,32.29
2018-08-17T09:53:09.862Z,32.27
2018-08-17T09:55:38.916Z,32.27
2018-08-17T09:58:09.219Z,32.08
2018-08-17T10:00:40.588Z,31.87
2018-08-17T10:03:14.494Z,31.62
2018-08-17T10:05:44.689Z,31.08
2018-08-17T10:08:19.707Z,30.79
2018-08-17T10:10:48.469Z,30.64
2018-08-17T10:13:17.118Z,30.57
2018-08-17T10:15:45.924Z,30.55
2018-08-17T10:18:15.516Z,30.37
2018-08-17T10:20:44.420Z,30.43
2018-08-17T10:23:18.352Z,30.60
2018-08-17T10:25:47.028Z,30.88
2018-08-17T10:28:16.094Z,30.73
2018-08-17T10:30:44.931Z,30.53
2018-08-17T10:33:13.876Z,30.39
2018-08-17T10:35:42.640Z,30.10
2018-08-17T10:38:11.643Z,30.07
2018-08-17T10:40:40.987Z,30.38
2018-08-17T10:43:11.283Z,31.02
2018-08-17T10:45:40.814Z,31.41
2018-08-17T10:48:10.492Z,31.42
2018-08-17T10:50:39.891Z,31.24
2018-08-17T10:53:09.878Z,31.20
2018-08-17T10:55:45.130Z,31.19
2018-08-17T10:58:16.259Z,31.29
2018-08-17T11:00:45.004Z,31.46
2018-08-17T11:03:13.875Z,31.41
2018-08-17T11:05:42.650Z,31.31
2018-08-17T11:08:11.461Z,31.35
2018-08-17T11:10:40.607Z,31.20
2018-08-17T11:13:10.414Z,31.26
2018-08-17T11:15:41.617Z,31.61
2018-08-17T11:18:10.680Z,31.58
2018-08-17T11:20:40.607Z,31.52
2018-08-17T11:23:09.412Z,31.25
2018-08-17T11:25:38.376Z,31.21
2018-08-17T11:28:07.508Z,31.46
2018-08-17T11:30:37.045Z,31.24
2018-08-17T11:33:06.474Z,31.38
2018-08-17T11:35:35.954Z,31.76
2018-08-17T11:38:05.286Z,32.14
2018-08-17T11:40:34.089Z,32.38
2018-08-17T11:43:02.905Z,32.46
2018-08-17T11:45:31.794Z,32.62
2018-08-17T11:48:00.623Z,33.21
2018-08-17T11:50:29.322Z,33.98
2018-08-17T11:52:58.920Z,34.64
2018-08-17T11:55:29.673Z,35.10
2018-08-17T11:57:58.429Z,35.87
2018-08-17T12:00:32.305Z,36.54
2018-08-17T12:03:01.832Z,36.21
2018-08-17T12:05:30.969Z,35.58
2018-08-17T12:08:00.415Z,35.66
2018-08-17T12:10:29.221Z,35.22
2018-08-17T12:13:03.519Z,35.14
2018-08-17T12:15:45.471Z,35.87
2018-08-17T12:18:14.994Z,37.88
2018-08-17T12:20:44.291Z,40.18
2018-08-17T12:23:13.443Z,41.79
2018-08-17T12:25:48.295Z,42.64
2018-08-17T12:28:17.932Z,41.08
2018-08-17T12:30:47.241Z,40.86
2018-08-17T12:33:16.013Z,41.23
2018-08-17T12:35:45.150Z,41.81
2018-08-17T12:38:15.453Z,43.19
2018-08-17T12:40:49.199Z,44.01
2018-08-17T12:43:20.790Z,41.91
2018-08-17T12:45:49.581Z,40.19
2018-08-17T12:48:18.598Z,41.09
2018-08-17T12:50:49.111Z,42.67
2018-08-17T12:53:18.170Z,44.35
2018-08-17T12:55:47.463Z,44.42
2018-08-17T12:58:16.465Z,45.67
2018-08-17T13:00:45.665Z,45.97
2018-08-17T13:03:16.014Z,45.42
2018-08-17T13:05:45.527Z,45.88
2018-08-17T13:08:15.169Z,45.93
2018-08-17T13:10:43.959Z,45.12
2018-08-17T13:13:12.885Z,44.19
2018-08-17T13:15:46.288Z,43.36
2018-08-17T13:18:20.421Z,43.17
2018-08-17T13:20:49.279Z,44.27
2018-08-17T13:23:18.165Z,44.78
2018-08-17T13:25:47.265Z,45.33
2018-08-17T13:28:16.468Z,46.02
2018-08-17T13:30:45.217Z,45.87
2018-08-17T13:33:13.871Z,44.69
2018-08-17T13:35:42.925Z,43.72
2018-08-17T13:38:11.667Z,42.67
2018-08-17T13:40:40.476Z,40.71
2018-08-17T13:43:09.304Z,39.34
2018-08-17T13:45:38.248Z,37.89
2018-08-17T13:48:07.273Z,37.46
2018-08-17T13:50:36.450Z,37.65
2018-08-17T13:53:05.325Z,37.89
2018-08-17T13:55:34.511Z,38.09
2018-08-17T13:58:03.438Z,37.92
2018-08-17T14:00:32.597Z,37.43
2018-08-17T14:03:01.692Z,36.61
2018-08-17T14:05:30.742Z,36.10
2018-08-17T14:07:59.757Z,35.24
2018-08-17T14:10:28.812Z,34.77
2018-08-17T14:12:57.640Z,34.63
2018-08-17T14:15:26.440Z,34.60
2018-08-17T14:17:56.160Z,34.47
2018-08-17T14:20:25.009Z,34.32
2018-08-17T14:22:53.975Z,34.06
2018-08-17T14:25:23.203Z,33.98
2018-08-17T14:27:52.063Z,33.85
2018-08-17T14:30:20.959Z,33.84
2018-08-17T14:32:50.182Z,33.89
2018-08-17T14:35:19.029Z,33.81
2018-08-17T14:37:47.995Z,33.81
2018-08-17T14:40:17.136Z,33.70
2018-08-17T14:42:46.768Z,33.93
2018-08-17T14:45:15.758Z,34.08
2018-08-17T14:47:45.267Z,34.28
2018-08-17T14:50:15.193Z,34.77
2018-08-17T14:52:44.120Z,34.90
2018-08-17T14:55:13.516Z,35.01
2018-08-17T14:57:42.379Z,35.00
2018-08-17T15:00:14.129Z,34.68
2018-08-17T15:02:43.130Z,34.63
2018-08-17T15:05:13.294Z,34.90
2018-08-17T15:07:42.345Z,35.00
2018-08-17T15:10:13.302Z,35.14
2018-08-17T15:12:42.916Z,35.25
2018-08-17T15:15:12.852Z,35.10
2018-08-17T15:17:42.306Z,34.90
2018-08-17T15:20:12.607Z,34.74
2018-08-17T15:22:41.902Z,34.73
2018-08-17T15:25:11.032Z,34.68
2018-08-17T15:27:39.862Z,34.41
2018-08-17T15:30:10.448Z,34.12
2018-08-17T15:32:45.824Z,34.01
2018-08-17T15:35:14.606Z,33.79
2018-08-17T15:37:43.451Z,33.53
2018-08-17T15:40:13.114Z,33.50
2018-08-17T15:42:42.830Z,33.24
2018-08-17T15:45:11.985Z,33.13
2018-08-17T15:47:40.943Z,32.90
2018-08-17T15:50:18.164Z,32.82
2018-08-17T15:52:47.306Z,32.69
2018-08-17T15:55:16.256Z,32.53
2018-08-17T15:57:45.470Z,32.35
2018-08-17T16:00:17.015Z,32.21
2018-08-17T16:02:46.273Z,32.13
2018-08-17T16:05:15.781Z,32.06
2018-08-17T16:07:44.644Z,32.10
2018-08-17T16:10:15.271Z,31.88
2018-08-17T16:12:44.548Z,31.81
2018-08-17T16:15:13.745Z,31.68
2018-08-17T16:17:44.804Z,31.57
2018-08-17T16:20:15.047Z,31.46
2018-08-17T16:22:44.577Z,31.47
2018-08-17T16:25:15.131Z,31.32
2018-08-17T16:27:43.945Z,31.27
2018-08-17T16:30:14.803Z,31.20
2018-08-17T16:32:43.845Z,31.17
2018-08-17T16:35:13.687Z,31.08
2018-08-17T16:37:46.129Z,30.99
2018-08-17T16:40:15.631Z,30.95
2018-08-17T16:42:45.939Z,30.86
2018-08-17T16:45:15.588Z,30.73
2018-08-17T16:47:44.357Z,30.65
2018-08-17T16:50:13.954Z,30.59
2018-08-17T16:52:43.296Z,30.57
2018-08-17T16:55:13.032Z,30.60
2018-08-17T16:57:41.823Z,30.62
2018-08-17T17:00:11.708Z,30.46
2018-08-17T17:02:41.374Z,30.38
2018-08-17T17:05:10.118Z,30.20
2018-08-17T17:07:38.872Z,30.03
2018-08-17T17:10:09.617Z,29.99
2018-08-17T17:12:38.452Z,29.89
2018-08-17T17:15:17.925Z,29.88
2018-08-17T17:17:56.909Z,29.66
2018-08-17T17:20:27.790Z,29.76
2018-08-17T17:22:56.511Z,29.58
2018-08-17T17:25:25.272Z,29.44
2018-08-17T17:27:54.017Z,29.37
2018-08-17T17:30:23.374Z,29.25
2018-08-17T17:32:52.100Z,29.28
2018-08-17T17:35:21.353Z,29.13
2018-08-17T17:37:51.087Z,29.07
2018-08-17T17:40:19.916Z,29.13
2018-08-17T17:42:48.808Z,29.07
2018-08-17T17:45:17.775Z,29.01
2018-08-17T17:47:47.352Z,28.98
2018-08-17T17:50:16.515Z,28.85
2018-08-17T17:52:45.247Z,28.73
2018-08-17T17:55:14.046Z,28.88
2018-08-17T17:57:43.359Z,28.71
2018-08-17T18:00:12.278Z,28.61
2018-08-17T18:02:41.100Z,28.55
2018-08-17T18:05:09.953Z,28.48
2018-08-17T18:07:44.824Z,28.52
2018-08-17T18:10:13.711Z,28.41
2018-08-17T18:12:42.647Z,28.45
2018-08-17T18:15:12.081Z,28.29
2018-08-17T18:17:41.304Z,28.30
2018-08-17T18:20:10.952Z,28.22
2018-08-17T18:22:39.806Z,28.12
2018-08-17T18:25:13.784Z,28.11
2018-08-17T18:27:42.569Z,27.99
2018-08-17T18:30:11.305Z,27.94
2018-08-17T18:32:40.829Z,27.95
2018-08-17T18:35:11.146Z,27.83
2018-08-17T18:37:39.911Z,27.80
2018-08-17T18:40:10.498Z,27.77
2018-08-17T18:42:39.705Z,27.74
2018-08-17T18:45:09.050Z,27.68
2018-08-17T18:47:38.350Z,27.68
2018-08-17T18:50:08.456Z,27.61
2018-08-17T18:52:52.377Z,27.54
2018-08-17T18:55:22.828Z,27.46
2018-08-17T18:57:52.009Z,27.37
2018-08-17T19:00:21.523Z,27.28
2018-08-17T19:02:51.688Z,27.25
2018-08-17T19:05:21.108Z,27.24
2018-08-17T19:07:49.771Z,27.18
2018-08-17T19:10:18.514Z,27.16
2018-08-17T19:12:47.547Z,27.08
2018-08-17T19:15:16.515Z,27.07
2018-08-17T19:17:45.306Z,27.01
2018-08-17T19:20:14.545Z,27.00
2018-08-17T19:22:45.143Z,26.92
2018-08-17T19:25:16.307Z,26.91
2018-08-17T19:27:45.991Z,26.84
2018-08-17T19:30:48.182Z,26.87
2018-08-17T19:33:18.925Z,26.72
2018-08-17T19:35:48.571Z,26.68
2018-08-17T19:38:19.250Z,26.61
2018-08-17T19:40:48.950Z,26.57
2018-08-17T19:43:18.724Z,26.54
2018-08-17T19:45:48.898Z,26.50
2018-08-17T19:48:18.650Z,26.51
2018-08-17T19:50:48.749Z,26.46
2018-08-17T19:53:18.398Z,26.49
2018-08-17T19:55:48.842Z,26.47
2018-08-17T19:58:18.585Z,26.48
2018-08-17T20:00:49.321Z,26.42
2018-08-17T20:03:23.337Z,26.46
2018-08-17T20:05:52.813Z,26.43
2018-08-17T20:08:23.005Z,26.35
2018-08-17T20:10:53.076Z,26.30
2018-08-17T20:13:22.691Z,26.38
2018-08-17T20:15:52.142Z,26.33
2018-08-17T20:18:22.489Z,26.26
2018-08-17T20:20:52.577Z,26.23
2018-08-17T20:23:23.030Z,26.13
2018-08-17T20:25:51.879Z,26.03
2018-08-17T20:28:20.553Z,25.91
2018-08-17T20:30:51.018Z,25.83
2018-08-17T20:33:30.686Z,25.91
2018-08-17T20:36:00.158Z,25.87
2018-08-17T20:38:29.048Z,25.83
2018-08-17T20:41:01.464Z,25.74
2018-08-17T20:43:31.952Z,25.66
2018-08-17T20:46:00.742Z,25.61
2018-08-17T20:48:30.138Z,25.58
2018-08-17T20:51:04.324Z,25.52
2018-08-17T20:53:35.628Z,25.51
2018-08-17T20:56:05.247Z,25.42
2018-08-17T20:58:36.304Z,25.39
2018-08-17T21:01:07.877Z,25.48
2018-08-17T21:03:37.149Z,25.44
2018-08-17T21:06:06.098Z,25.41
2018-08-17T21:08:35.535Z,25.44
2018-08-17T21:11:05.958Z,25.32
2018-08-17T21:13:36.153Z,25.25
2018-08-17T21:16:08.076Z,25.17
2018-08-17T21:18:42.378Z,25.23
2018-08-17T21:21:14.737Z,25.20
2018-08-17T21:23:45.933Z,25.20
2018-08-17T21:26:14.841Z,25.22
2018-08-17T21:28:46.244Z,25.10
2018-08-17T21:31:15.964Z,25.10
2018-08-17T21:33:46.397Z,25.08
2018-08-17T21:36:15.367Z,25.06
2018-08-17T21:38:44.168Z,25.09
2018-08-17T21:41:14.383Z,25.03
2018-08-17T21:43:45.210Z,24.96
2018-08-17T21:46:15.900Z,24.85
2018-08-17T21:48:45.412Z,24.90
2018-08-17T21:51:15.262Z,24.81
2018-08-17T21:53:45.101Z,24.78
2018-08-17T21:56:14.357Z,24.70
2018-08-17T21:58:43.489Z,24.65
2018-08-17T22:01:12.221Z,24.62
2018-08-17T22:03:41.048Z,24.64
2018-08-17T22:06:11.066Z,24.61
2018-08-17T22:08:41.177Z,24.48
2018-08-17T22:11:10.631Z,24.50
2018-08-17T22:13:40.973Z,24.49
2018-08-17T22:16:09.776Z,24.40
2018-08-17T22:18:38.867Z,24.39
2018-08-17T22:21:07.576Z,24.35
2018-08-17T22:23:36.436Z,24.29
2018-08-17T22:26:06.113Z,24.37
2018-08-17T22:28:34.863Z,24.32
2018-08-17T22:31:03.546Z,24.29
2018-08-17T22:33:32.334Z,24.27
2018-08-17T22:36:01.558Z,24.30
2018-08-17T22:38:34.563Z,24.28
2018-08-17T22:41:03.287Z,24.31
2018-08-17T22:43:32.100Z,24.23
2018-08-17T22:46:02.015Z,24.13
2018-08-17T22:48:30.944Z,24.15
2018-08-17T22:51:00.418Z,24.12
2018-08-17T22:53:30.326Z,24.04
2018-08-17T22:56:00.983Z,24.02
2018-08-17T22:58:34.692Z,24.01
2018-08-17T23:01:03.654Z,24.02
2018-08-17T23:03:33.029Z,24.08
2018-08-17T23:06:03.765Z,24.13
2018-08-17T23:08:33.512Z,24.15
2018-08-17T23:11:03.989Z,24.01
2018-08-17T23:13:34.307Z,23.89
2018-08-17T23:16:03.250Z,23.82
2018-08-17T23:18:32.294Z,23.70
2018-08-17T23:21:01.686Z,23.68
2018-08-17T23:23:30.799Z,23.67
2018-08-17T23:26:01.893Z,23.65
2018-08-17T23:28:32.617Z,23.69
2018-08-17T23:31:03.020Z,23.61
2018-08-17T23:33:32.446Z,23.64
2018-08-17T23:36:01.365Z,23.63
2018-08-17T23:38:32.200Z,23.63
2018-08-17T23:41:02.332Z,23.63
2018-08-17T23:43:31.844Z,23.58
2018-08-17T23:46:00.496Z,23.64
2018-08-17T23:48:29.360Z,23.58
2018-08-17T23:50:58.253Z,23.57
2018-08-17T23:53:28.009Z,23.47
2018-08-17T23:55:57.856Z,23.45
2018-08-17T23:58:26.610Z,23.41
